sensor_id;sensor_type;location;lat;lon;timestamp;temperature;humidity
35129;DHT22;21301;43.626;10.580;2023-09-12T00:01:30;19.90;99.90
35129;DHT22;21301;43.626;10.580;2023-09-12T00:04:00;19.80;99.90
35129;DHT22;21301;43.626;10.580;2023-09-12T00:06:26;19.90;99.90
35129;DHT22;21301;43.626;10.580;2023-09-12T00:08:52;19.90;99.90
35129;DHT22;21301;43.626;10.580;2023-09-12T00:11:18;20.00;99.90
35129;DHT22;21301;43.626;10.580;2023-09-12T00:13:44;20.00;99.90
35129;DHT22;21301;43.626;10.580;2023-09-12T00:16:10;20.20;99.90
35129;DHT22;21301;43.626;10.580;2023-09-12T00:18:39;20.50;99.90
35129;DHT22;21301;43.626;10.580;2023-09-12T00:21:05;20.90;99.90
35129;DHT22;21301;43.626;10.580;2023-09-12T00:23:31;21.20;99.90
35129;DHT22;21301;43.626;10.580;2023-09-12T00:25:57;20.90;98.50
35129;DHT22;21301;43.626;10.580;2023-09-12T00:28:23;21.00;99.20
35129;DHT22;21301;43.626;10.580;2023-09-12T00:30:49;21.20;98.40
35129;DHT22;21301;43.626;10.580;2023-09-12T00:33:15;21.00;95.50
35129;DHT22;21301;43.626;10.580;2023-09-12T00:35:41;20.70;96.20
35129;DHT22;21301;43.626;10.580;2023-09-12T00:38:08;20.40;97.20
35129;DHT22;21301;43.626;10.580;2023-09-12T00:40:34;19.80;99.80
35129;DHT22;21301;43.626;10.580;2023-09-12T00:43:00;19.50;99.90
35129;DHT22;21301;43.626;10.580;2023-09-12T00:45:26;19.40;99.90
35129;DHT22;21301;43.626;10.580;2023-09-12T00:47:52;19.10;99.90
35129;DHT22;21301;43.626;10.580;2023-09-12T00:50:20;19.00;99.90
35129;DHT22;21301;43.626;10.580;2023-09-12T00:52:48;19.00;99.90
35129;DHT22;21301;43.626;10.580;2023-09-12T00:55:14;19.20;99.90
35129;DHT22;21301;43.626;10.580;2023-09-12T00:57:41;19.30;99.90
35129;DHT22;21301;43.626;10.580;2023-09-12T01:00:07;19.60;99.90
35129;DHT22;21301;43.626;10.580;2023-09-12T01:02:45;19.60;99.90
35129;DHT22;21301;43.626;10.580;2023-09-12T01:05:13;19.70;99.90
35129;DHT22;21301;43.626;10.580;2023-09-12T01:07:40;19.80;99.90
35129;DHT22;21301;43.626;10.580;2023-09-12T01:10:08;20.20;99.90
35129;DHT22;21301;43.626;10.580;2023-09-12T01:12:34;20.30;99.20
35129;DHT22;21301;43.626;10.580;2023-09-12T01:15:00;20.40;99.40
35129;DHT22;21301;43.626;10.580;2023-09-12T01:17:26;20.60;99.70
35129;DHT22;21301;43.626;10.580;2023-09-12T01:19:53;20.50;95.70
35129;DHT22;21301;43.626;10.580;2023-09-12T01:25:27;20.00;96.10
35129;DHT22;21301;43.626;10.580;2023-09-12T01:28:00;19.40;99.90
35129;DHT22;21301;43.626;10.580;2023-09-12T01:30:28;19.00;99.90
35129;DHT22;21301;43.626;10.580;2023-09-12T01:32:57;18.70;99.90
35129;DHT22;21301;43.626;10.580;2023-09-12T01:35:23;18.40;99.90
35129;DHT22;21301;43.626;10.580;2023-09-12T01:37:48;18.20;99.90
35129;DHT22;21301;43.626;10.580;2023-09-12T01:40:14;18.20;99.90
35129;DHT22;21301;43.626;10.580;2023-09-12T01:42:45;18.20;99.90
35129;DHT22;21301;43.626;10.580;2023-09-12T01:45:17;18.30;99.90
35129;DHT22;21301;43.626;10.580;2023-09-12T01:47:45;18.20;99.90
35129;DHT22;21301;43.626;10.580;2023-09-12T01:50:12;18.20;99.90
35129;DHT22;21301;43.626;10.580;2023-09-12T01:52:40;18.30;99.90
35129;DHT22;21301;43.626;10.580;2023-09-12T01:55:07;18.20;99.90
35129;DHT22;21301;43.626;10.580;2023-09-12T01:57:38;18.20;99.90
35129;DHT22;21301;43.626;10.580;2023-09-12T02:00:04;18.20;99.90
35129;DHT22;21301;43.626;10.580;2023-09-12T02:02:31;18.30;99.90
35129;DHT22;21301;43.626;10.580;2023-09-12T02:05:10;18.20;99.90
35129;DHT22;21301;43.626;10.580;2023-09-12T02:07:39;18.20;99.90
35129;DHT22;21301;43.626;10.580;2023-09-12T02:10:06;18.30;99.90
35129;DHT22;21301;43.626;10.580;2023-09-12T02:12:32;18.40;99.90
35129;DHT22;21301;43.626;10.580;2023-09-12T02:14:58;18.40;99.90
35129;DHT22;21301;43.626;10.580;2023-09-12T02:17:23;18.30;99.90
35129;DHT22;21301;43.626;10.580;2023-09-12T02:19:49;18.10;99.90
35129;DHT22;21301;43.626;10.580;2023-09-12T02:22:15;18.10;99.90
35129;DHT22;21301;43.626;10.580;2023-09-12T02:24:41;17.90;99.90
35129;DHT22;21301;43.626;10.580;2023-09-12T02:27:07;17.80;99.90
35129;DHT22;21301;43.626;10.580;2023-09-12T02:29:33;17.80;99.90
35129;DHT22;21301;43.626;10.580;2023-09-12T02:31:59;17.80;99.90
35129;DHT22;21301;43.626;10.580;2023-09-12T02:34:25;17.80;99.90
35129;DHT22;21301;43.626;10.580;2023-09-12T02:36:51;17.80;99.90
35129;DHT22;21301;43.626;10.580;2023-09-12T02:39:17;17.70;99.90
35129;DHT22;21301;43.626;10.580;2023-09-12T02:41:42;17.70;99.90
35129;DHT22;21301;43.626;10.580;2023-09-12T02:44:08;17.60;99.90
35129;DHT22;21301;43.626;10.580;2023-09-12T02:46:36;17.60;99.90
35129;DHT22;21301;43.626;10.580;2023-09-12T02:49:01;17.60;99.90
35129;DHT22;21301;43.626;10.580;2023-09-12T02:51:28;17.60;99.90
35129;DHT22;21301;43.626;10.580;2023-09-12T02:53:54;17.70;99.90
35129;DHT22;21301;43.626;10.580;2023-09-12T02:56:20;17.70;99.90
35129;DHT22;21301;43.626;10.580;2023-09-12T02:58:46;17.70;99.90
35129;DHT22;21301;43.626;10.580;2023-09-12T03:01:16;17.70;99.90
35129;DHT22;21301;43.626;10.580;2023-09-12T03:03:42;17.70;99.90
35129;DHT22;21301;43.626;10.580;2023-09-12T03:06:09;17.70;99.90
35129;DHT22;21301;43.626;10.580;2023-09-12T03:08:35;17.80;99.90
35129;DHT22;21301;43.626;10.580;2023-09-12T03:11:01;17.80;99.90
35129;DHT22;21301;43.626;10.580;2023-09-12T03:13:29;17.50;99.90
35129;DHT22;21301;43.626;10.580;2023-09-12T03:15:55;17.50;99.90
35129;DHT22;21301;43.626;10.580;2023-09-12T03:18:21;17.50;99.90
35129;DHT22;21301;43.626;10.580;2023-09-12T03:20:46;17.50;99.90
35129;DHT22;21301;43.626;10.580;2023-09-12T03:23:12;17.40;99.90
35129;DHT22;21301;43.626;10.580;2023-09-12T03:25:38;17.30;99.90
35129;DHT22;21301;43.626;10.580;2023-09-12T03:28:05;17.20;99.90
35129;DHT22;21301;43.626;10.580;2023-09-12T03:30:36;17.10;99.90
35129;DHT22;21301;43.626;10.580;2023-09-12T03:33:02;17.20;99.90
35129;DHT22;21301;43.626;10.580;2023-09-12T03:35:29;17.00;99.90
35129;DHT22;21301;43.626;10.580;2023-09-12T03:37:55;17.00;99.90
35129;DHT22;21301;43.626;10.580;2023-09-12T03:40:21;17.10;99.90
35129;DHT22;21301;43.626;10.580;2023-09-12T03:42:47;17.10;99.90
35129;DHT22;21301;43.626;10.580;2023-09-12T03:45:12;17.20;99.90
35129;DHT22;21301;43.626;10.580;2023-09-12T03:47:39;17.30;99.90
35129;DHT22;21301;43.626;10.580;2023-09-12T03:50:05;17.30;99.90
35129;DHT22;21301;43.626;10.580;2023-09-12T03:52:31;17.50;99.90
35129;DHT22;21301;43.626;10.580;2023-09-12T03:54:57;17.50;99.90
35129;DHT22;21301;43.626;10.580;2023-09-12T03:57:23;17.60;99.90
35129;DHT22;21301;43.626;10.580;2023-09-12T03:59:48;17.70;99.90
35129;DHT22;21301;43.626;10.580;2023-09-12T04:02:14;17.80;99.90
35129;DHT22;21301;43.626;10.580;2023-09-12T04:04:40;17.90;99.90
35129;DHT22;21301;43.626;10.580;2023-09-12T04:07:06;17.90;99.90
35129;DHT22;21301;43.626;10.580;2023-09-12T04:09:32;17.80;99.90
35129;DHT22;21301;43.626;10.580;2023-09-12T04:11:58;17.70;99.90
35129;DHT22;21301;43.626;10.580;2023-09-12T04:14:24;17.50;99.90
35129;DHT22;21301;43.626;10.580;2023-09-12T04:16:50;17.60;99.90
35129;DHT22;21301;43.626;10.580;2023-09-12T04:19:16;17.60;99.90
35129;DHT22;21301;43.626;10.580;2023-09-12T04:21:42;17.50;99.90
35129;DHT22;21301;43.626;10.580;2023-09-12T04:24:08;17.40;99.90
35129;DHT22;21301;43.626;10.580;2023-09-12T04:26:35;17.30;99.90
35129;DHT22;21301;43.626;10.580;2023-09-12T04:29:00;17.20;99.90
35129;DHT22;21301;43.626;10.580;2023-09-12T04:31:27;17.10;99.90
35129;DHT22;21301;43.626;10.580;2023-09-12T04:33:52;17.10;99.90
35129;DHT22;21301;43.626;10.580;2023-09-12T04:36:19;17.10;99.90
35129;DHT22;21301;43.626;10.580;2023-09-12T04:38:45;17.10;99.90
35129;DHT22;21301;43.626;10.580;2023-09-12T04:41:12;17.00;99.90
35129;DHT22;21301;43.626;10.580;2023-09-12T04:43:41;16.90;99.90
35129;DHT22;21301;43.626;10.580;2023-09-12T04:46:06;16.90;99.90
35129;DHT22;21301;43.626;10.580;2023-09-12T04:48:33;17.00;99.90
35129;DHT22;21301;43.626;10.580;2023-09-12T04:50:59;17.10;99.90
35129;DHT22;21301;43.626;10.580;2023-09-12T04:53:25;17.00;99.90
35129;DHT22;21301;43.626;10.580;2023-09-12T04:55:54;17.20;99.90
35129;DHT22;21301;43.626;10.580;2023-09-12T04:58:20;17.50;99.90
35129;DHT22;21301;43.626;10.580;2023-09-12T05:00:46;17.50;99.90
35129;DHT22;21301;43.626;10.580;2023-09-12T05:03:11;17.40;99.90
35129;DHT22;21301;43.626;10.580;2023-09-12T05:05:37;17.30;99.90
35129;DHT22;21301;43.626;10.580;2023-09-12T05:08:03;17.20;99.90
35129;DHT22;21301;43.626;10.580;2023-09-12T05:10:30;17.40;99.90
35129;DHT22;21301;43.626;10.580;2023-09-12T05:12:56;17.60;99.90
35129;DHT22;21301;43.626;10.580;2023-09-12T05:15:21;17.60;99.90
35129;DHT22;21301;43.626;10.580;2023-09-12T05:17:47;17.40;99.90
35129;DHT22;21301;43.626;10.580;2023-09-12T05:20:13;17.40;99.90
35129;DHT22;21301;43.626;10.580;2023-09-12T05:22:42;17.50;99.90
35129;DHT22;21301;43.626;10.580;2023-09-12T05:25:08;17.70;99.90
35129;DHT22;21301;43.626;10.580;2023-09-12T05:27:34;18.00;99.90
35129;DHT22;21301;43.626;10.580;2023-09-12T05:30:01;18.10;99.90
35129;DHT22;21301;43.626;10.580;2023-09-12T05:32:27;18.20;99.90
35129;DHT22;21301;43.626;10.580;2023-09-12T05:34:58;18.30;99.90
35129;DHT22;21301;43.626;10.580;2023-09-12T05:37:24;18.60;99.90
35129;DHT22;21301;43.626;10.580;2023-09-12T05:39:49;19.20;99.90
35129;DHT22;21301;43.626;10.580;2023-09-12T05:42:15;19.60;99.90
35129;DHT22;21301;43.626;10.580;2023-09-12T05:44:50;19.80;99.90
35129;DHT22;21301;43.626;10.580;2023-09-12T05:47:20;20.40;99.90
35129;DHT22;21301;43.626;10.580;2023-09-12T05:49:46;20.70;97.10
35129;DHT22;21301;43.626;10.580;2023-09-12T05:52:12;20.90;95.30
35129;DHT22;21301;43.626;10.580;2023-09-12T05:54:39;21.20;95.20
35129;DHT22;21301;43.626;10.580;2023-09-12T05:57:07;21.80;91.40
35129;DHT22;21301;43.626;10.580;2023-09-12T05:59:35;22.10;84.00
35129;DHT22;21301;43.626;10.580;2023-09-12T06:02:01;22.20;75.60
35129;DHT22;21301;43.626;10.580;2023-09-12T06:04:27;22.30;70.40
35129;DHT22;21301;43.626;10.580;2023-09-12T06:06:53;22.40;63.40
35129;DHT22;21301;43.626;10.580;2023-09-12T06:09:19;22.30;63.70
35129;DHT22;21301;43.626;10.580;2023-09-12T06:11:44;22.10;69.00
35129;DHT22;21301;43.626;10.580;2023-09-12T06:14:10;21.90;74.90
35129;DHT22;21301;43.626;10.580;2023-09-12T06:16:36;21.60;80.10
35129;DHT22;21301;43.626;10.580;2023-09-12T06:19:01;21.80;87.00
35129;DHT22;21301;43.626;10.580;2023-09-12T06:21:27;22.00;81.20
35129;DHT22;21301;43.626;10.580;2023-09-12T06:24:14;22.00;83.60
35129;DHT22;21301;43.626;10.580;2023-09-12T06:26:40;22.10;77.60
35129;DHT22;21301;43.626;10.580;2023-09-12T06:29:06;21.70;82.40
35129;DHT22;21301;43.626;10.580;2023-09-12T06:31:32;21.60;87.10
35129;DHT22;21301;43.626;10.580;2023-09-12T06:33:59;21.60;87.60
35129;DHT22;21301;43.626;10.580;2023-09-12T06:36:25;21.60;88.40
35129;DHT22;21301;43.626;10.580;2023-09-12T06:38:51;21.70;84.90
35129;DHT22;21301;43.626;10.580;2023-09-12T06:41:20;21.90;79.30
35129;DHT22;21301;43.626;10.580;2023-09-12T06:43:46;22.10;73.40
35129;DHT22;21301;43.626;10.580;2023-09-12T06:46:11;22.50;66.40
35129;DHT22;21301;43.626;10.580;2023-09-12T06:48:37;23.20;49.50
35129;DHT22;21301;43.626;10.580;2023-09-12T06:51:08;23.50;35.60
35129;DHT22;21301;43.626;10.580;2023-09-12T06:53:34;23.80;27.10
35129;DHT22;21301;43.626;10.580;2023-09-12T06:55:59;23.70;99.90
35129;DHT22;21301;43.626;10.580;2023-09-12T06:58:25;24.30;99.90
35129;DHT22;21301;43.626;10.580;2023-09-12T07:00:51;24.70;99.90
35129;DHT22;21301;43.626;10.580;2023-09-12T07:03:17;24.60;20.00
35129;DHT22;21301;43.626;10.580;2023-09-12T07:05:43;24.30;7.60
35129;DHT22;21301;43.626;10.580;2023-09-12T07:08:10;24.50;99.90
35129;DHT22;21301;43.626;10.580;2023-09-12T07:10:35;24.70;99.90
35129;DHT22;21301;43.626;10.580;2023-09-12T07:13:02;24.80;19.60
35129;DHT22;21301;43.626;10.580;2023-09-12T07:15:28;25.10;99.90
35129;DHT22;21301;43.626;10.580;2023-09-12T07:17:54;25.30;99.90
35129;DHT22;21301;43.626;10.580;2023-09-12T07:20:19;25.60;99.90
35129;DHT22;21301;43.626;10.580;2023-09-12T07:22:46;25.40;99.90
35129;DHT22;21301;43.626;10.580;2023-09-12T07:25:13;25.50;99.90
35129;DHT22;21301;43.626;10.580;2023-09-12T07:27:39;25.30;99.90
35129;DHT22;21301;43.626;10.580;2023-09-12T07:30:06;25.60;99.90
35129;DHT22;21301;43.626;10.580;2023-09-12T07:32:32;25.50;99.90
35129;DHT22;21301;43.626;10.580;2023-09-12T07:34:58;25.60;99.90
35129;DHT22;21301;43.626;10.580;2023-09-12T07:37:27;26.20;93.20
35129;DHT22;21301;43.626;10.580;2023-09-12T07:39:53;25.80;69.60
35129;DHT22;21301;43.626;10.580;2023-09-12T07:42:22;25.80;80.40
35129;DHT22;21301;43.626;10.580;2023-09-12T07:44:48;26.20;34.70
35129;DHT22;21301;43.626;10.580;2023-09-12T07:47:14;26.00;44.20
35129;DHT22;21301;43.626;10.580;2023-09-12T07:49:40;26.30;19.30
35129;DHT22;21301;43.626;10.580;2023-09-12T07:52:06;26.60;1.00
35129;DHT22;21301;43.626;10.580;2023-09-12T07:54:32;26.70;1.00
35129;DHT22;21301;43.626;10.580;2023-09-12T07:56:58;26.80;1.00
35129;DHT22;21301;43.626;10.580;2023-09-12T07:59:24;27.10;1.00
35129;DHT22;21301;43.626;10.580;2023-09-12T08:01:50;27.30;1.00
35129;DHT22;21301;43.626;10.580;2023-09-12T08:07:54;27.70;99.90
35129;DHT22;21301;43.626;10.580;2023-09-12T08:10:26;28.00;99.90
35129;DHT22;21301;43.626;10.580;2023-09-12T08:12:53;28.60;99.90
35129;DHT22;21301;43.626;10.580;2023-09-12T08:15:19;29.10;99.90
35129;DHT22;21301;43.626;10.580;2023-09-12T08:18:00;29.00;99.90
35129;DHT22;21301;43.626;10.580;2023-09-12T08:20:26;29.00;99.90
35129;DHT22;21301;43.626;10.580;2023-09-12T08:22:51;29.30;99.90
35129;DHT22;21301;43.626;10.580;2023-09-12T08:25:17;29.70;99.90
35129;DHT22;21301;43.626;10.580;2023-09-12T08:27:44;30.10;99.90
35129;DHT22;21301;43.626;10.580;2023-09-12T08:30:11;30.60;99.90
35129;DHT22;21301;43.626;10.580;2023-09-12T08:39:26;30.60;99.90
35129;DHT22;21301;43.626;10.580;2023-09-12T08:41:53;30.40;99.90
35129;DHT22;21301;43.626;10.580;2023-09-12T08:44:20;30.70;99.90
35129;DHT22;21301;43.626;10.580;2023-09-12T08:46:46;30.90;99.90
35129;DHT22;21301;43.626;10.580;2023-09-12T08:49:12;30.60;99.90
35129;DHT22;21301;43.626;10.580;2023-09-12T08:51:39;30.30;99.90
35129;DHT22;21301;43.626;10.580;2023-09-12T08:54:05;30.50;99.90
35129;DHT22;21301;43.626;10.580;2023-09-12T08:56:32;30.40;99.90
35129;DHT22;21301;43.626;10.580;2023-09-12T08:59:00;31.00;99.90
35129;DHT22;21301;43.626;10.580;2023-09-12T09:01:28;31.20;99.90
35129;DHT22;21301;43.626;10.580;2023-09-12T09:03:56;30.20;99.90
35129;DHT22;21301;43.626;10.580;2023-09-12T09:06:22;30.60;99.90
35129;DHT22;21301;43.626;10.580;2023-09-12T09:08:51;31.10;99.90
35129;DHT22;21301;43.626;10.580;2023-09-12T09:11:17;31.70;99.90
35129;DHT22;21301;43.626;10.580;2023-09-12T09:13:43;32.10;99.90
35129;DHT22;21301;43.626;10.580;2023-09-12T09:19:01;32.20;99.90
35129;DHT22;21301;43.626;10.580;2023-09-12T09:21:29;32.40;99.90
35129;DHT22;21301;43.626;10.580;2023-09-12T09:24:01;32.80;99.90
35129;DHT22;21301;43.626;10.580;2023-09-12T09:29:09;31.60;99.90
35129;DHT22;21301;43.626;10.580;2023-09-12T09:31:40;32.20;99.90
35129;DHT22;21301;43.626;10.580;2023-09-12T09:34:11;32.00;99.90
35129;DHT22;21301;43.626;10.580;2023-09-12T09:36:41;31.90;99.90
35129;DHT22;21301;43.626;10.580;2023-09-12T09:39:08;31.70;99.90
35129;DHT22;21301;43.626;10.580;2023-09-12T09:41:33;31.50;99.90
35129;DHT22;21301;43.626;10.580;2023-09-12T09:44:00;31.90;99.90
35129;DHT22;21301;43.626;10.580;2023-09-12T09:46:25;31.70;99.90
35129;DHT22;21301;43.626;10.580;2023-09-12T10:04:45;31.30;99.90
35129;DHT22;21301;43.626;10.580;2023-09-12T10:40:29;31.30;99.90
35129;DHT22;21301;43.626;10.580;2023-09-12T10:42:56;31.80;99.90
35129;DHT22;21301;43.626;10.580;2023-09-12T10:45:22;32.00;99.90
35129;DHT22;21301;43.626;10.580;2023-09-12T10:47:48;31.30;99.90
35129;DHT22;21301;43.626;10.580;2023-09-12T10:50:14;32.00;99.90
35129;DHT22;21301;43.626;10.580;2023-09-12T10:52:40;31.90;99.90
35129;DHT22;21301;43.626;10.580;2023-09-12T10:55:07;32.30;99.90
35129;DHT22;21301;43.626;10.580;2023-09-12T10:57:33;31.70;99.90
35129;DHT22;21301;43.626;10.580;2023-09-12T11:02:35;31.70;99.90
35129;DHT22;21301;43.626;10.580;2023-09-12T11:05:04;31.70;99.90
35129;DHT22;21301;43.626;10.580;2023-09-12T11:12:48;31.20;99.90
35129;DHT22;21301;43.626;10.580;2023-09-12T11:15:15;31.50;99.90
35129;DHT22;21301;43.626;10.580;2023-09-12T11:17:44;31.70;99.90
35129;DHT22;21301;43.626;10.580;2023-09-12T11:20:12;31.00;99.90
35129;DHT22;21301;43.626;10.580;2023-09-12T11:22:43;31.60;99.90
35129;DHT22;21301;43.626;10.580;2023-09-12T11:28:02;31.90;99.90
35129;DHT22;21301;43.626;10.580;2023-09-12T11:30:29;31.90;99.90
35129;DHT22;21301;43.626;10.580;2023-09-12T11:32:58;31.50;99.90
35129;DHT22;21301;43.626;10.580;2023-09-12T11:35:27;31.10;99.90
35129;DHT22;21301;43.626;10.580;2023-09-12T11:37:55;30.80;99.90
35129;DHT22;21301;43.626;10.580;2023-09-12T11:40:27;30.40;99.90
35129;DHT22;21301;43.626;10.580;2023-09-12T11:43:06;30.50;99.90
35129;DHT22;21301;43.626;10.580;2023-09-12T11:45:33;30.80;99.90
35129;DHT22;21301;43.626;10.580;2023-09-12T11:47:59;30.70;99.90
35129;DHT22;21301;43.626;10.580;2023-09-12T11:50:35;30.90;99.90
35129;DHT22;21301;43.626;10.580;2023-09-12T11:53:08;30.70;99.90
35129;DHT22;21301;43.626;10.580;2023-09-12T11:55:36;30.80;99.90
35129;DHT22;21301;43.626;10.580;2023-09-12T12:01:12;31.00;99.90
35129;DHT22;21301;43.626;10.580;2023-09-12T12:03:39;30.70;99.90
35129;DHT22;21301;43.626;10.580;2023-09-12T12:06:05;30.70;99.90
35129;DHT22;21301;43.626;10.580;2023-09-12T12:08:31;31.00;99.90
35129;DHT22;21301;43.626;10.580;2023-09-12T12:10:58;31.50;99.90
35129;DHT22;21301;43.626;10.580;2023-09-12T12:13:24;31.70;99.90
35129;DHT22;21301;43.626;10.580;2023-09-12T12:15:50;31.50;99.90
35129;DHT22;21301;43.626;10.580;2023-09-12T12:18:16;31.20;99.90
35129;DHT22;21301;43.626;10.580;2023-09-12T12:20:42;31.50;99.90
35129;DHT22;21301;43.626;10.580;2023-09-12T12:23:08;31.30;99.90
35129;DHT22;21301;43.626;10.580;2023-09-12T12:25:35;31.00;99.90
35129;DHT22;21301;43.626;10.580;2023-09-12T12:28:04;30.90;99.90
35129;DHT22;21301;43.626;10.580;2023-09-12T12:30:34;30.80;99.90
35129;DHT22;21301;43.626;10.580;2023-09-12T12:33:02;30.60;99.90
35129;DHT22;21301;43.626;10.580;2023-09-12T12:35:31;30.70;99.90
35129;DHT22;21301;43.626;10.580;2023-09-12T12:37:57;30.30;99.90
35129;DHT22;21301;43.626;10.580;2023-09-12T12:40:23;30.50;99.90
35129;DHT22;21301;43.626;10.580;2023-09-12T12:42:49;30.50;99.90
35129;DHT22;21301;43.626;10.580;2023-09-12T12:47:42;29.80;99.90
35129;DHT22;21301;43.626;10.580;2023-09-12T12:50:14;29.90;99.90
35129;DHT22;21301;43.626;10.580;2023-09-12T12:52:40;29.60;99.90
35129;DHT22;21301;43.626;10.580;2023-09-12T12:55:10;30.00;99.90
35129;DHT22;21301;43.626;10.580;2023-09-12T12:57:41;30.00;99.90
35129;DHT22;21301;43.626;10.580;2023-09-12T13:00:15;29.80;99.90
35129;DHT22;21301;43.626;10.580;2023-09-12T13:02:42;29.80;99.90
35129;DHT22;21301;43.626;10.580;2023-09-12T13:05:29;30.20;99.90
35129;DHT22;21301;43.626;10.580;2023-09-12T13:07:55;30.50;99.90
35129;DHT22;21301;43.626;10.580;2023-09-12T13:10:22;30.50;99.90
35129;DHT22;21301;43.626;10.580;2023-09-12T13:12:49;30.80;99.90
35129;DHT22;21301;43.626;10.580;2023-09-12T13:15:15;30.70;99.90
35129;DHT22;21301;43.626;10.580;2023-09-12T13:17:42;30.60;99.90
35129;DHT22;21301;43.626;10.580;2023-09-12T13:20:09;30.80;99.90
35129;DHT22;21301;43.626;10.580;2023-09-12T13:22:35;30.70;99.90
35129;DHT22;21301;43.626;10.580;2023-09-12T13:25:01;30.30;99.90
35129;DHT22;21301;43.626;10.580;2023-09-12T13:27:28;30.60;99.90
35129;DHT22;21301;43.626;10.580;2023-09-12T13:29:54;31.30;99.90
35129;DHT22;21301;43.626;10.580;2023-09-12T13:32:20;31.50;99.90
35129;DHT22;21301;43.626;10.580;2023-09-12T13:34:49;31.00;99.90
35129;DHT22;21301;43.626;10.580;2023-09-12T13:37:16;31.00;99.90
35129;DHT22;21301;43.626;10.580;2023-09-12T13:39:44;31.40;99.90
35129;DHT22;21301;43.626;10.580;2023-09-12T13:42:15;31.30;99.90
35129;DHT22;21301;43.626;10.580;2023-09-12T13:44:44;30.80;99.90
35129;DHT22;21301;43.626;10.580;2023-09-12T13:47:10;30.20;99.90
35129;DHT22;21301;43.626;10.580;2023-09-12T13:49:36;30.20;99.90
35129;DHT22;21301;43.626;10.580;2023-09-12T13:52:04;30.30;99.90
35129;DHT22;21301;43.626;10.580;2023-09-12T13:54:30;30.00;99.90
35129;DHT22;21301;43.626;10.580;2023-09-12T13:56:56;30.00;99.90
35129;DHT22;21301;43.626;10.580;2023-09-12T13:59:21;30.00;99.90
35129;DHT22;21301;43.626;10.580;2023-09-12T14:01:48;29.90;99.90
35129;DHT22;21301;43.626;10.580;2023-09-12T14:04:13;30.60;99.90
35129;DHT22;21301;43.626;10.580;2023-09-12T14:06:40;30.20;99.90
35129;DHT22;21301;43.626;10.580;2023-09-12T14:09:06;29.70;99.90
35129;DHT22;21301;43.626;10.580;2023-09-12T14:11:31;29.90;99.90
35129;DHT22;21301;43.626;10.580;2023-09-12T14:13:57;30.20;99.90
35129;DHT22;21301;43.626;10.580;2023-09-12T14:16:23;31.20;99.90
35129;DHT22;21301;43.626;10.580;2023-09-12T14:18:49;31.20;99.90
35129;DHT22;21301;43.626;10.580;2023-09-12T14:21:14;30.60;99.90
35129;DHT22;21301;43.626;10.580;2023-09-12T14:23:40;30.70;99.90
35129;DHT22;21301;43.626;10.580;2023-09-12T14:26:06;30.50;99.90
35129;DHT22;21301;43.626;10.580;2023-09-12T14:28:32;31.00;99.90
35129;DHT22;21301;43.626;10.580;2023-09-12T14:31:00;30.80;99.90
35129;DHT22;21301;43.626;10.580;2023-09-12T14:33:26;30.40;99.90
35129;DHT22;21301;43.626;10.580;2023-09-12T14:35:52;30.30;99.90
35129;DHT22;21301;43.626;10.580;2023-09-12T14:38:17;30.10;99.90
35129;DHT22;21301;43.626;10.580;2023-09-12T14:40:43;29.90;99.90
35129;DHT22;21301;43.626;10.580;2023-09-12T14:43:09;29.90;99.90
35129;DHT22;21301;43.626;10.580;2023-09-12T14:45:35;30.40;99.90
35129;DHT22;21301;43.626;10.580;2023-09-12T14:48:01;30.40;99.90
35129;DHT22;21301;43.626;10.580;2023-09-12T14:50:27;30.30;99.90
35129;DHT22;21301;43.626;10.580;2023-09-12T14:52:55;30.40;99.90
35129;DHT22;21301;43.626;10.580;2023-09-12T14:55:22;30.40;99.90
35129;DHT22;21301;43.626;10.580;2023-09-12T14:57:48;30.60;99.90
35129;DHT22;21301;43.626;10.580;2023-09-12T15:00:15;30.40;99.90
35129;DHT22;21301;43.626;10.580;2023-09-12T15:02:41;30.10;99.90
35129;DHT22;21301;43.626;10.580;2023-09-12T15:05:08;29.60;99.90
35129;DHT22;21301;43.626;10.580;2023-09-12T15:07:34;29.50;99.90
35129;DHT22;21301;43.626;10.580;2023-09-12T15:10:03;30.00;99.90
35129;DHT22;21301;43.626;10.580;2023-09-12T15:12:29;29.90;99.90
35129;DHT22;21301;43.626;10.580;2023-09-12T15:14:55;29.80;99.90
35129;DHT22;21301;43.626;10.580;2023-09-12T15:17:21;29.90;99.90
35129;DHT22;21301;43.626;10.580;2023-09-12T15:19:47;29.70;99.90
35129;DHT22;21301;43.626;10.580;2023-09-12T15:22:13;29.50;99.90
35129;DHT22;21301;43.626;10.580;2023-09-12T15:24:40;29.90;99.90
35129;DHT22;21301;43.626;10.580;2023-09-12T15:27:06;29.60;99.90
35129;DHT22;21301;43.626;10.580;2023-09-12T15:29:34;29.90;99.90
35129;DHT22;21301;43.626;10.580;2023-09-12T15:32:00;29.60;99.90
35129;DHT22;21301;43.626;10.580;2023-09-12T15:34:26;29.50;99.90
35129;DHT22;21301;43.626;10.580;2023-09-12T15:37:07;29.50;99.90
35129;DHT22;21301;43.626;10.580;2023-09-12T15:39:33;29.40;99.90
35129;DHT22;21301;43.626;10.580;2023-09-12T15:41:59;29.50;99.90
35129;DHT22;21301;43.626;10.580;2023-09-12T15:44:24;29.30;99.90
35129;DHT22;21301;43.626;10.580;2023-09-12T15:46:52;29.20;99.90
35129;DHT22;21301;43.626;10.580;2023-09-12T15:49:19;28.90;99.90
35129;DHT22;21301;43.626;10.580;2023-09-12T15:51:45;29.10;99.90
35129;DHT22;21301;43.626;10.580;2023-09-12T15:54:11;28.90;99.90
35129;DHT22;21301;43.626;10.580;2023-09-12T15:56:36;28.70;99.90
35129;DHT22;21301;43.626;10.580;2023-09-12T15:59:02;28.80;99.90
35129;DHT22;21301;43.626;10.580;2023-09-12T16:01:28;28.80;99.90
35129;DHT22;21301;43.626;10.580;2023-09-12T16:03:59;28.60;99.90
35129;DHT22;21301;43.626;10.580;2023-09-12T16:06:25;28.70;99.90
35129;DHT22;21301;43.626;10.580;2023-09-12T16:08:51;28.50;99.90
35129;DHT22;21301;43.626;10.580;2023-09-12T16:11:16;28.60;99.90
35129;DHT22;21301;43.626;10.580;2023-09-12T16:13:42;28.70;99.90
35129;DHT22;21301;43.626;10.580;2023-09-12T16:16:14;28.50;99.90
35129;DHT22;21301;43.626;10.580;2023-09-12T16:18:40;28.70;99.90
35129;DHT22;21301;43.626;10.580;2023-09-12T16:21:07;28.40;99.90
35129;DHT22;21301;43.626;10.580;2023-09-12T16:23:33;28.30;99.90
35129;DHT22;21301;43.626;10.580;2023-09-12T16:25:59;28.40;99.90
35129;DHT22;21301;43.626;10.580;2023-09-12T16:28:26;28.40;99.90
35129;DHT22;21301;43.626;10.580;2023-09-12T16:30:52;28.30;99.90
35129;DHT22;21301;43.626;10.580;2023-09-12T16:33:18;28.10;99.90
35129;DHT22;21301;43.626;10.580;2023-09-12T16:35:44;27.90;99.90
35129;DHT22;21301;43.626;10.580;2023-09-12T16:38:10;27.80;99.90
35129;DHT22;21301;43.626;10.580;2023-09-12T16:40:37;27.80;99.90